Time;durP1;ratioP1;P1;durP2;ratioP2;P2;SDS_P1;SDS_P2;PMS_P1;PMS_P2;Temp;Humidity;BMP_temperature;BMP_pressure;BME280_temperature;BME280_humidity;BME280_pressure;Samples;Min_cycle;Max_cycle;Signal;HPM_P1;HPM_P2
2023/04/08 00:00:29;;;;;;;16.55;14.85;;;7.60;99.90;;;;;;6123783;23;20372;-81
2023/04/08 00:02:56;;;;;;;15.63;14.03;;;7.50;99.90;;;;;;6121227;23;20431;-81
2023/04/08 00:05:23;;;;;;;14.93;13.35;;;7.50;99.90;;;;;;6122689;23;20382;-80
2023/04/08 00:07:50;;;;;;;18.77;16.77;;;7.40;99.90;;;;;;6121508;23;20468;-80
2023/04/08 00:10:17;;;;;;;17.35;15.55;;;7.40;99.90;;;;;;6122496;23;20403;-80
2023/04/08 00:12:44;;;;;;;16.17;14.50;;;7.20;99.90;;;;;;6122081;23;20418;-80
2023/04/08 00:15:11;;;;;;;14.48;13.02;;;7.20;99.90;;;;;;6110153;23;21012;-80
2023/04/08 00:17:38;;;;;;;15.23;13.63;;;7.10;99.90;;;;;;6122360;23;20402;-80
2023/04/08 00:20:05;;;;;;;13.25;11.98;;;7.10;99.90;;;;;;6122119;23;20407;-80
2023/04/08 00:22:32;;;;;;;12.82;11.52;;;7.00;99.90;;;;;;6122038;23;20407;-81
2023/04/08 00:25:00;;;;;;;23.63;18.00;;;7.00;99.90;;;;;;6121677;23;20687;-80
2023/04/08 00:27:27;;;;;;;43.88;27.58;;;7.00;99.90;;;;;;6122107;23;20439;-80
2023/04/08 00:29:54;;;;;;;39.50;26.88;;;6.90;99.90;;;;;;6122795;23;20381;-81
2023/04/08 00:32:21;;;;;;;26.60;19.30;;;6.90;99.90;;;;;;6121581;23;20399;-81
2023/04/08 00:34:48;;;;;;;21.83;16.80;;;6.90;99.90;;;;;;6121724;23;20403;-81
2023/04/08 00:37:16;;;;;;;23.90;16.77;;;6.90;99.90;;;;;;6121820;23;20427;-80
2023/04/08 00:39:43;;;;;;;21.08;15.70;;;6.90;99.90;;;;;;6122264;23;20885;-81
2023/04/08 00:42:09;;;;;;;17.30;14.43;;;6.90;99.90;;;;;;6120616;23;20383;-80
2023/04/08 00:44:36;;;;;;;32.65;19.88;;;6.80;99.90;;;;;;6122010;23;20400;-79
2023/04/08 00:47:03;;;;;;;41.00;25.13;;;6.80;99.90;;;;;;6120568;23;20454;-79
2023/04/08 00:49:31;;;;;;;45.90;27.10;;;6.80;99.90;;;;;;6122359;23;20399;-79
2023/04/08 00:51:59;;;;;;;77.13;41.07;;;6.80;99.90;;;;;;6120789;23;20379;-79
2023/04/08 00:54:26;;;;;;;38.67;23.98;;;6.70;99.90;;;;;;6122004;23;20384;-79
2023/04/08 00:56:53;;;;;;;24.67;17.98;;;6.70;99.90;;;;;;6120896;23;20908;-81
2023/04/08 00:59:20;;;;;;;19.50;15.18;;;6.70;99.90;;;;;;6122232;23;20841;-81
2023/04/08 02:32:35;;;;;;;15.05;13.40;;;4.90;99.90;;;;;;6084909;23;20409;-81
2023/04/08 02:35:04;;;;;;;14.85;13.25;;;4.90;99.90;;;;;;6092512;23;20393;-80
2023/04/08 02:37:31;;;;;;;15.65;13.82;;;4.90;99.90;;;;;;6068776;23;20773;-80
2023/04/08 02:39:59;;;;;;;15.02;13.40;;;4.90;99.90;;;;;;6067922;23;20373;-81
2023/04/08 02:42:26;;;;;;;14.52;13.02;;;4.90;99.90;;;;;;6068833;23;20440;-81
2023/04/08 02:44:56;;;;;;;14.05;12.55;;;4.90;99.90;;;;;;6068866;23;20404;-81
2023/04/08 02:47:23;;;;;;;18.83;15.15;;;4.80;99.90;;;;;;6122667;23;20374;-80
2023/04/08 02:49:52;;;;;;;15.23;13.63;;;4.70;99.90;;;;;;6097771;23;20457;-80
2023/04/08 02:52:19;;;;;;;13.50;12.10;;;4.70;99.90;;;;;;6121799;23;20374;-80
2023/04/08 02:54:46;;;;;;;18.52;16.52;;;4.70;99.90;;;;;;6097540;23;20407;-81
2023/04/08 02:57:13;;;;;;;15.63;13.90;;;4.50;99.90;;;;;;6096463;23;20493;-80
2023/04/08 02:59:40;;;;;;;17.48;14.77;;;4.50;99.90;;;;;;6097417;23;20826;-80
2023/04/08 03:02:07;;;;;;;15.38;13.73;;;4.40;99.90;;;;;;6095588;23;20403;-80
2023/04/08 03:04:34;;;;;;;14.93;13.37;;;4.40;99.90;;;;;;6097866;23;20375;-80
2023/04/08 03:07:01;;;;;;;13.75;12.32;;;4.30;99.90;;;;;;6096786;23;20387;-81
2023/04/08 03:09:27;;;;;;;15.57;13.55;;;4.30;99.90;;;;;;6098227;23;20387;-80
2023/04/08 03:11:54;;;;;;;17.63;15.63;;;4.20;99.90;;;;;;6097800;23;20845;-80
2023/04/08 03:14:21;;;;;;;17.20;15.17;;;4.20;99.90;;;;;;6096870;23;20419;-80
2023/04/08 03:16:48;;;;;;;22.73;18.85;;;4.20;99.90;;;;;;6096963;23;20450;-82
2023/04/08 03:19:15;;;;;;;18.38;16.38;;;4.30;99.90;;;;;;6096913;23;20758;-81
2023/04/08 03:21:42;;;;;;;16.58;14.77;;;4.30;99.90;;;;;;6097322;23;20430;-80
2023/04/08 03:24:09;;;;;;;15.47;13.77;;;4.40;99.90;;;;;;6096476;23;20451;-80
2023/04/08 03:26:36;;;;;;;17.15;14.20;;;4.40;99.90;;;;;;6097462;23;20451;-80
2023/04/08 03:29:02;;;;;;;15.55;13.50;;;4.40;99.90;;;;;;6096935;23;20387;-81
2023/04/08 03:31:29;;;;;;;14.57;13.00;;;4.40;99.90;;;;;;6097007;23;20380;-80
2023/04/08 03:33:56;;;;;;;18.75;16.08;;;4.40;99.90;;;;;;6097504;23;20439;-81
2023/04/08 03:36:23;;;;;;;16.33;14.63;;;4.30;99.90;;;;;;6096978;23;20376;-80
2023/04/08 03:38:50;;;;;;;15.30;13.38;;;4.30;99.90;;;;;;6099567;23;20454;-80
2023/04/08 03:41:17;;;;;;;13.35;12.00;;;4.30;99.90;;;;;;6098492;23;20765;-80
2023/04/08 03:43:44;;;;;;;16.05;14.07;;;4.20;99.90;;;;;;6099037;23;20375;-81
2023/04/08 03:46:11;;;;;;;13.20;11.85;;;4.20;99.90;;;;;;6098710;23;20694;-81
2023/04/08 03:48:38;;;;;;;15.60;13.65;;;4.20;99.90;;;;;;6099505;23;20443;-80
2023/04/08 03:51:05;;;;;;;14.63;13.03;;;4.20;99.90;;;;;;6098773;23;20375;-80
2023/04/08 03:53:32;;;;;;;15.18;13.10;;;4.20;99.90;;;;;;6098489;23;20371;-80
2023/04/08 03:56:01;;;;;;;15.70;13.80;;;4.10;99.90;;;;;;6099153;23;20387;-81
2023/04/08 03:58:28;;;;;;;16.00;13.60;;;4.00;99.90;;;;;;6124136;23;20443;-80
2023/04/08 04:00:55;;;;;;;14.23;12.73;;;4.00;99.90;;;;;;6099432;23;20395;-80
2023/04/08 04:03:22;;;;;;;17.50;15.38;;;4.00;99.90;;;;;;6098318;23;20402;-80
2023/04/08 04:05:49;;;;;;;18.60;16.05;;;3.90;99.90;;;;;;6098920;23;20842;-80
2023/04/08 04:08:17;;;;;;;19.40;15.97;;;4.00;99.90;;;;;;6123844;23;20434;-80
2023/04/08 04:10:43;;;;;;;20.77;16.55;;;3.90;99.90;;;;;;6098824;23;20379;-80
2023/04/08 04:13:10;;;;;;;15.35;13.77;;;4.00;99.90;;;;;;6098659;23;20450;-80
2023/04/08 04:15:38;;;;;;;16.70;14.90;;;4.00;99.90;;;;;;6098872;23;20383;-80
2023/04/08 04:18:06;;;;;;;18.48;16.48;;;3.90;99.90;;;;;;6098269;23;20798;-80
2023/04/08 04:20:33;;;;;;;17.10;14.60;;;3.90;99.90;;;;;;6098781;23;20727;-80
2023/04/08 04:23:00;;;;;;;15.55;13.85;;;3.80;99.90;;;;;;6124386;23;20426;-80
2023/04/08 04:25:27;;;;;;;17.37;14.10;;;3.80;99.90;;;;;;6097890;23;20368;-80
2023/04/08 04:27:54;;;;;;;15.98;14.25;;;3.80;99.90;;;;;;6098962;23;20392;-79
2023/04/08 04:30:21;;;;;;;14.60;13.05;;;3.80;99.90;;;;;;6097860;23;20375;-80
2023/04/08 04:32:47;;;;;;;13.52;12.13;;;3.80;99.90;;;;;;6124644;23;20455;-80
2023/04/08 04:35:15;;;;;;;15.10;12.73;;;3.80;99.90;;;;;;6097110;23;20720;-79
2023/04/08 04:37:42;;;;;;;13.68;12.23;;;3.80;99.90;;;;;;6098988;23;20842;-80
2023/04/08 04:40:09;;;;;;;16.95;14.93;;;3.80;99.90;;;;;;6097312;23;20398;-80
2023/04/08 04:42:36;;;;;;;16.77;15.07;;;3.80;99.90;;;;;;6098770;23;20418;-80
2023/04/08 04:45:04;;;;;;;19.57;16.17;;;3.90;99.90;;;;;;6098923;23;20376;-80
2023/04/08 04:47:31;;;;;;;16.10;14.40;;;3.90;99.90;;;;;;6097230;23;20366;-79
2023/04/08 04:49:58;;;;;;;15.10;13.50;;;4.00;99.90;;;;;;6098849;23;20406;-80
2023/04/08 04:52:25;;;;;;;15.70;13.60;;;4.10;99.90;;;;;;6123331;23;20451;-80
2023/04/08 04:54:52;;;;;;;15.10;13.13;;;4.10;99.90;;;;;;6098711;23;20379;-80
2023/04/08 04:57:19;;;;;;;13.65;12.18;;;4.10;99.90;;;;;;6097097;23;20386;-79
2023/04/08 04:59:46;;;;;;;15.70;13.52;;;4.10;99.90;;;;;;6098593;23;20803;-79
2023/04/08 05:02:13;;;;;;;14.27;12.75;;;4.10;99.90;;;;;;6097558;23;20380;-80
2023/04/08 05:04:40;;;;;;;15.73;13.77;;;4.10;99.90;;;;;;6098570;23;20395;-79
2023/04/08 05:07:07;;;;;;;13.23;11.73;;;4.10;99.90;;;;;;6098736;23;20687;-80
2023/04/08 05:09:34;;;;;;;11.77;10.57;;;4.10;99.90;;;;;;6097616;23;20682;-81
2023/04/08 05:12:00;;;;;;;10.85;9.10;;;4.10;99.90;;;;;;6098306;23;20418;-81
2023/04/08 05:14:30;;;;;;;11.20;10.00;;;4.20;99.90;;;;;;6097930;23;20467;-81
2023/04/08 05:16:57;;;;;;;8.50;7.60;;;4.20;99.90;;;;;;6098080;23;20688;-81
2023/04/08 05:19:24;;;;;;;7.35;6.65;;;4.20;99.90;;;;;;6097295;23;20912;-81
2023/04/08 05:21:51;;;;;;;7.85;6.47;;;4.20;99.90;;;;;;6097848;23;20379;-79
2023/04/08 05:24:18;;;;;;;8.48;7.10;;;4.30;99.90;;;;;;6097214;23;20380;-79
2023/04/08 05:26:46;;;;;;;3.25;1.38;;;4.30;99.90;;;;;;6123465;23;20406;-79
2023/04/08 05:29:15;;;;;;;1.40;0.90;;;4.50;99.90;;;;;;6097062;23;21612;-79
2023/04/08 05:31:42;;;;;;;2.03;1.58;;;4.70;99.90;;;;;;6097968;23;20386;-79
2023/04/08 05:34:10;;;;;;;0.90;0.60;;;4.90;99.90;;;;;;6098590;23;20375;-79
2023/04/08 05:36:36;;;;;;;2.13;0.50;;;5.10;96.20;;;;;;6097458;23;20806;-79
2023/04/08 05:39:03;;;;;;;2.42;1.13;;;5.60;85.00;;;;;;6097768;23;20380;-78
2023/04/08 05:41:30;;;;;;;0.90;0.43;;;5.80;94.50;;;;;;6096850;23;20408;-81
2023/04/08 05:43:57;;;;;;;2.58;2.00;;;6.10;76.20;;;;;;6098228;23;20430;-79
2023/04/08 05:46:24;;;;;;;2.33;1.48;;;6.40;85.50;;;;;;6097140;23;20427;-81
2023/04/08 05:48:51;;;;;;;1.35;0.50;;;6.40;85.10;;;;;;6097859;23;20443;-80
2023/04/08 05:51:18;;;;;;;1.20;0.50;;;6.60;69.70;;;;;;6097593;23;20702;-80
2023/04/08 05:53:45;;;;;;;1.93;0.30;;;6.60;73.00;;;;;;6097846;23;20371;-81
2023/04/08 05:56:12;;;;;;;2.58;0.40;;;7.10;58.10;;;;;;6098288;23;20380;-78
2023/04/08 05:58:39;;;;;;;2.03;0.30;;;7.30;57.50;;;;;;6096894;23;20363;-79
2023/04/08 06:01:06;;;;;;;2.30;0.30;;;7.50;55.50;;;;;;6123610;23;20376;-79
2023/04/08 06:03:33;;;;;;;1.50;0.40;;;7.80;53.90;;;;;;6096190;23;20379;-78
2023/04/08 06:06:00;;;;;;;0.90;0.30;;;8.00;52.90;;;;;;6097975;23;20736;-80
2023/04/08 06:08:27;;;;;;;0.90;0.30;;;8.20;50.40;;;;;;6096693;23;20388;-79
2023/04/08 06:10:54;;;;;;;2.22;0.55;;;8.50;48.80;;;;;;6097621;23;20376;-79
2023/04/08 06:13:21;;;;;;;1.90;0.30;;;8.60;49.20;;;;;;6096591;23;20376;-79
2023/04/08 06:15:48;;;;;;;2.05;0.40;;;8.70;48.30;;;;;;6097986;23;20411;-80
2023/04/08 06:18:16;;;;;;;0.52;0.30;;;8.80;48.30;;;;;;6097617;23;20722;-79
2023/04/08 06:20:43;;;;;;;0.73;0.28;;;8.80;48.00;;;;;;6096939;23;20364;-79
2023/04/08 06:23:10;;;;;;;1.40;0.35;;;8.90;48.00;;;;;;6123548;23;20383;-79
2023/04/08 06:25:37;;;;;;;1.40;0.30;;;9.00;47.90;;;;;;6122284;23;20698;-80
2023/04/08 06:28:04;;;;;;;0.60;0.28;;;9.00;46.60;;;;;;6098016;23;20427;-78
2023/04/08 06:30:31;;;;;;;1.08;0.30;;;9.10;46.20;;;;;;6096741;23;20399;-78
2023/04/08 06:32:57;;;;;;;1.20;0.20;;;9.20;45.00;;;;;;6097226;23;20410;-81
2023/04/08 06:35:25;;;;;;;0.60;0.25;;;9.40;44.70;;;;;;6096863;23;20838;-81
2023/04/08 06:37:52;;;;;;;0.40;0.20;;;9.50;44.60;;;;;;6097670;23;20376;-80
2023/04/08 06:40:19;;;;;;;0.90;0.30;;;9.60;44.00;;;;;;6097900;23;20379;-80
2023/04/08 06:42:46;;;;;;;0.30;0.20;;;9.70;43.90;;;;;;6122110;23;20438;-84
2023/04/08 06:45:13;;;;;;;1.10;0.30;;;9.70;43.40;;;;;;6097850;23;20371;-80
2023/04/08 06:47:40;;;;;;;2.83;0.35;;;9.80;43.90;;;;;;6096856;23;20403;-80
2023/04/08 06:50:07;;;;;;;0.57;0.30;;;9.80;43.30;;;;;;6123246;23;20426;-81
2023/04/08 06:52:34;;;;;;;0.60;0.40;;;9.90;43.30;;;;;;6097003;23;20748;-80
2023/04/08 06:55:01;;;;;;;0.55;0.30;;;10.00;43.00;;;;;;6097403;23;20399;-81
2023/04/08 06:57:28;;;;;;;1.80;0.50;;;10.10;42.60;;;;;;6097033;23;20395;-80
2023/04/08 06:59:55;;;;;;;1.20;0.43;;;10.20;45.50;;;;;;6097619;23;20395;-81
2023/04/08 07:02:22;;;;;;;1.35;1.00;;;10.20;46.20;;;;;;6097538;23;20376;-81
2023/04/08 07:04:49;;;;;;;0.70;0.35;;;10.20;51.00;;;;;;6096779;23;20371;-82
2023/04/08 07:07:16;;;;;;;1.60;0.47;;;10.30;44.90;;;;;;6097372;23;20395;-81
2023/04/08 07:09:44;;;;;;;1.63;0.55;;;10.40;42.60;;;;;;6095848;23;20766;-80
2023/04/08 07:12:12;;;;;;;1.67;0.30;;;10.50;42.20;;;;;;6099785;23;20372;-78
2023/04/08 07:14:39;;;;;;;2.10;0.40;;;10.70;41.50;;;;;;6098880;23;20398;-80
2023/04/08 07:17:06;;;;;;;0.88;0.30;;;10.70;40.60;;;;;;6099140;23;20418;-81
2023/04/08 07:19:33;;;;;;;0.30;0.30;;;10.80;41.00;;;;;;6098716;23;20471;-81
2023/04/08 07:21:59;;;;;;;2.10;0.30;;;10.90;40.70;;;;;;6099302;23;20541;-79
2023/04/08 07:24:26;;;;;;;0.47;0.20;;;11.00;40.40;;;;;;6097557;23;20392;-79
2023/04/08 07:26:55;;;;;;;1.58;0.30;;;11.10;39.60;;;;;;6098572;23;20407;-79
2023/04/08 07:29:22;;;;;;;0.82;0.20;;;11.20;39.40;;;;;;6099408;23;20426;-78
2023/04/08 07:31:50;;;;;;;0.30;0.20;;;11.30;39.40;;;;;;6098101;23;20400;-79
2023/04/08 07:34:17;;;;;;;1.57;0.30;;;11.40;38.90;;;;;;6100234;23;20372;-79
2023/04/08 07:36:44;;;;;;;0.70;0.30;;;11.50;39.00;;;;;;6097848;23;20438;-79
2023/04/08 07:39:11;;;;;;;1.20;0.30;;;11.60;38.30;;;;;;6099670;23;20426;-79
2023/04/08 07:41:38;;;;;;;1.20;0.20;;;11.70;38.00;;;;;;6098353;23;20435;-79
2023/04/08 07:44:05;;;;;;;1.25;0.30;;;11.90;37.90;;;;;;6125143;23;20452;-79
2023/04/08 07:46:37;;;;;;;1.15;0.40;;;12.00;37.40;;;;;;6098739;23;20372;-79
2023/04/08 07:49:04;;;;;;;0.57;0.28;;;12.10;36.70;;;;;;6098919;23;20386;-79
2023/04/08 07:51:30;;;;;;;0.95;0.20;;;12.20;36.70;;;;;;6098742;23;20403;-79
2023/04/08 07:53:58;;;;;;;0.32;0.20;;;12.30;35.90;;;;;;6098935;23;20443;-79
2023/04/08 07:56:25;;;;;;;0.90;0.40;;;12.40;35.10;;;;;;6099503;23;20459;-79
2023/04/08 07:58:53;;;;;;;0.95;0.20;;;12.40;36.10;;;;;;6098265;23;20399;-79
2023/04/08 08:01:21;;;;;;;0.55;0.20;;;12.60;35.80;;;;;;6099375;23;20407;-79
2023/04/08 08:03:52;;;;;;;1.38;0.20;;;12.70;35.50;;;;;;6098543;23;22711;-79
2023/04/08 08:06:20;;;;;;;0.93;0.28;;;12.90;35.90;;;;;;6124403;23;20458;-79
2023/04/08 08:08:47;;;;;;;1.10;0.20;;;13.00;34.80;;;;;;6098441;23;20380;-79
2023/04/08 08:11:14;;;;;;;1.00;0.20;;;13.10;34.10;;;;;;6099052;23;20442;-79
2023/04/08 08:13:42;;;;;;;1.90;0.38;;;13.20;34.40;;;;;;6097775;23;20383;-79
2023/04/08 08:16:10;;;;;;;0.70;0.30;;;13.30;34.30;;;;;;6124511;23;20388;-80
2023/04/08 08:18:38;;;;;;;1.00;0.25;;;13.50;34.80;;;;;;6097757;23;20714;-79
2023/04/08 08:21:08;;;;;;;1.27;0.20;;;13.60;35.90;;;;;;6099147;23;20376;-79
2023/04/08 08:23:36;;;;;;;1.20;0.30;;;13.80;34.30;;;;;;6097041;23;20447;-79
2023/04/08 08:26:11;;;;;;;1.80;0.40;;;13.90;32.40;;;;;;6098612;23;20386;-78
2023/04/08 08:28:38;;;;;;;0.95;0.30;;;14.00;32.50;;;;;;6097292;23;20601;-79
2023/04/08 08:31:05;;;;;;;0.60;0.30;;;14.10;32.40;;;;;;6098718;23;20375;-80
2023/04/08 08:33:33;;;;;;;0.50;0.30;;;14.20;33.10;;;;;;6097361;23;20391;-81
2023/04/08 08:36:00;;;;;;;1.00;0.60;;;14.50;36.10;;;;;;6099258;23;20709;-79
2023/04/08 08:38:27;;;;;;;1.30;0.70;;;14.60;37.40;;;;;;6098079;23;20891;-79
2023/04/08 08:40:55;;;;;;;1.45;0.35;;;14.80;37.30;;;;;;6098228;23;20367;-80
2023/04/08 08:43:26;;;;;;;1.30;0.30;;;15.00;33.70;;;;;;6098479;23;20371;-80
2023/04/08 08:45:54;;;;;;;0.20;0.20;;;15.10;31.70;;;;;;6098211;23;20409;-80
2023/04/08 08:48:21;;;;;;;1.20;0.30;;;15.20;33.00;;;;;;6098949;23;20439;-79
2023/04/08 08:50:48;;;;;;;0.30;0.20;;;15.30;32.10;;;;;;6123272;23;20391;-78
2023/04/08 08:53:15;;;;;;;0.45;0.28;;;15.50;32.10;;;;;;6098490;23;20427;-78
2023/04/08 08:55:42;;;;;;;0.60;0.20;;;15.70;31.70;;;;;;6097793;23;20379;-79
2023/04/08 08:58:29;;;;;;;0.38;0.28;;;16.00;33.10;;;;;;6102399;23;20857;-79
2023/04/08 09:00:56;;;;;;;0.55;0.30;;;16.20;31.60;;;;;;6098061;23;20363;-80
2023/04/08 09:03:27;;;;;;;0.55;0.40;;;16.30;32.00;;;;;;6099018;23;20371;-79
2023/04/08 09:05:56;;;;;;;1.20;0.50;;;16.40;32.70;;;;;;6097767;23;20375;-79
2023/04/08 09:08:23;;;;;;;0.68;0.30;;;16.60;33.50;;;;;;6098853;23;20364;-79
2023/04/08 09:10:49;;;;;;;0.95;0.43;;;16.70;34.40;;;;;;6097695;23;20432;-78
2023/04/08 09:13:19;;;;;;;2.17;0.75;;;16.80;35.70;;;;;;6098799;23;20376;-78
2023/04/08 09:16:08;;;;;;;1.25;0.80;;;17.00;36.30;;;;;;6096935;23;20380;-79
2023/04/08 09:18:37;;;;;;;2.70;0.70;;;17.20;37.00;;;;;;6097180;23;20406;-79
2023/04/08 09:21:05;;;;;;;1.52;0.70;;;17.30;36.50;;;;;;6098672;23;20392;-79
2023/04/08 09:23:46;;;;;;;1.42;1.00;;;17.40;36.70;;;;;;6097779;23;20364;-78
2023/04/08 09:26:16;;;;;;;1.77;0.80;;;17.50;37.10;;;;;;6097536;23;20459;-79
2023/04/08 09:28:56;;;;;;;1.10;0.80;;;17.70;38.40;;;;;;6097881;23;20427;-79
2023/04/08 09:31:31;;;;;;;1.08;0.60;;;17.80;38.10;;;;;;6096780;23;20427;-79
2023/04/08 09:34:03;;;;;;;1.35;0.80;;;18.00;37.70;;;;;;6097668;23;20502;-79
2023/04/08 09:36:31;;;;;;;1.45;0.70;;;18.10;38.10;;;;;;6097467;23;20383;-80
2023/04/08 09:38:58;;;;;;;0.93;0.77;;;18.20;38.40;;;;;;6098685;23;20372;-80
2023/04/08 09:41:27;;;;;;;1.50;0.70;;;18.30;37.70;;;;;;6097161;23;20889;-81
2023/04/08 09:43:55;;;;;;;0.75;0.50;;;18.30;38.70;;;;;;6098520;23;20376;-80
2023/04/08 09:46:31;;;;;;;1.98;0.50;;;18.40;38.90;;;;;;6097038;23;20372;-80
2023/04/08 09:49:06;;;;;;;0.50;0.50;;;18.40;38.50;;;;;;6098117;23;20434;-79
2023/04/08 09:51:40;;;;;;;0.70;0.45;;;18.60;38.70;;;;;;6098056;23;20427;-81
2023/04/08 09:54:16;;;;;;;1.00;0.40;;;18.70;38.00;;;;;;6123025;23;20447;-81
2023/04/08 09:56:50;;;;;;;1.08;0.30;;;18.80;35.50;;;;;;6096826;23;20371;-81
2023/04/08 09:59:20;;;;;;;0.57;0.30;;;18.90;35.20;;;;;;6097907;23;20372;-81
2023/04/08 10:01:53;;;;;;;1.55;0.60;;;19.00;35.20;;;;;;6097245;23;20713;-81
2023/04/08 10:04:23;;;;;;;1.17;0.68;;;19.20;36.20;;;;;;6097930;23;20376;-81
2023/04/08 10:07:00;;;;;;;1.00;0.50;;;19.30;35.50;;;;;;6097253;23;20372;-81
2023/04/08 10:09:28;;;;;;;1.10;0.50;;;19.40;35.60;;;;;;6096722;23;20405;-84
2023/04/08 10:11:55;;;;;;;1.10;0.50;;;19.40;34.50;;;;;;6098138;23;20457;-81
2023/04/08 10:14:22;;;;;;;1.00;0.40;;;19.30;33.80;;;;;;6098138;23;20430;-81
2023/04/08 10:16:49;;;;;;;1.00;0.50;;;19.30;34.80;;;;;;6093767;23;20409;-83
2023/04/08 10:19:40;;;;;;;0.68;0.50;;;19.30;33.00;;;;;;6097227;23;20767;-80
2023/04/08 10:22:28;;;;;;;0.85;0.50;;;19.30;32.70;;;;;;6097516;23;21469;-81
2023/04/08 10:25:17;;;;;;;1.90;0.57;;;19.30;33.30;;;;;;6097648;23;20435;-83
2023/04/08 10:27:44;;;;;;;1.92;0.52;;;19.40;33.00;;;;;;6097278;23;20380;-81
2023/04/08 10:30:26;;;;;;;0.85;0.50;;;19.30;32.50;;;;;;6098282;23;20391;-81
2023/04/08 10:32:58;;;;;;;0.83;0.40;;;19.30;32.50;;;;;;6097307;23;20395;-86
2023/04/08 10:35:41;;;;;;;0.70;0.40;;;19.40;32.30;;;;;;6097993;23;20368;-81
2023/04/08 10:38:08;;;;;;;0.80;0.47;;;19.50;33.50;;;;;;6097369;23;20412;-83
2023/04/08 10:40:37;;;;;;;0.60;0.40;;;19.60;31.30;;;;;;6123647;23;20440;-83
2023/04/08 10:43:04;;;;;;;0.77;0.40;;;19.70;31.20;;;;;;6097229;23;20380;-82
2023/04/08 10:45:32;;;;;;;0.50;0.40;;;19.80;31.00;;;;;;6097631;23;20451;-82
2023/04/08 10:48:21;;;;;;;0.88;0.40;;;19.90;31.10;;;;;;6097351;23;20386;-83
2023/04/08 10:51:02;;;;;;;0.77;0.50;;;19.90;30.50;;;;;;6096679;23;20379;-82
2023/04/08 10:53:38;;;;;;;0.50;0.30;;;19.90;29.30;;;;;;6097728;23;20379;-83
2023/04/08 10:56:12;;;;;;;0.77;0.50;;;19.90;30.20;;;;;;6097471;23;20743;-82
2023/04/08 10:58:49;;;;;;;1.40;0.40;;;20.00;30.90;;;;;;6097688;23;20384;-83
2023/04/08 11:01:16;;;;;;;0.80;0.50;;;20.10;31.40;;;;;;6097442;23;20435;-82
2023/04/08 11:03:43;;;;;;;1.50;0.40;;;20.20;30.50;;;;;;6097688;23;20434;-83
2023/04/08 11:06:10;;;;;;;0.43;0.43;;;20.20;30.60;;;;;;6097120;23;20389;-84
2023/04/08 11:08:37;;;;;;;7.25;4.15;;;20.20;31.20;;;;;;6123042;23;20388;-83
2023/04/08 11:11:10;;;;;;;7.35;4.43;;;20.10;29.30;;;;;;6096553;23;20379;-83
2023/04/08 11:13:41;;;;;;;9.18;5.13;;;20.00;29.60;;;;;;6097915;23;20435;-81
2023/04/08 11:16:20;;;;;;;18.52;11.63;;;19.80;29.70;;;;;;6098538;23;20391;-82
2023/04/08 11:18:48;;;;;;;5.40;3.25;;;19.80;29.90;;;;;;6097581;23;20398;-83
2023/04/08 11:21:16;;;;;;;9.38;5.80;;;19.70;30.50;;;;;;6095910;23;20901;-83
2023/04/08 11:23:42;;;;;;;8.32;4.82;;;19.70;30.20;;;;;;6098114;23;20743;-83
2023/04/08 11:26:10;;;;;;;4.40;2.35;;;19.60;29.70;;;;;;6096715;23;20376;-83
2023/04/08 11:28:37;;;;;;;3.53;1.67;;;19.70;28.90;;;;;;6097684;23;20702;-83
2023/04/08 11:31:05;;;;;;;2.47;1.20;;;19.70;29.50;;;;;;6080662;23;20402;-84
2023/04/08 11:33:33;;;;;;;1.40;0.60;;;19.80;29.60;;;;;;6063895;23;20791;-81
2023/04/08 11:36:05;;;;;;;0.93;0.60;;;19.80;29.20;;;;;;6062926;23;20773;-83
2023/04/08 11:38:31;;;;;;;3.53;2.13;;;20.10;29.30;;;;;;6063473;23;20383;-79
2023/04/08 11:40:59;;;;;;;2.15;0.75;;;20.20;28.70;;;;;;6062748;23;20405;-82
2023/04/08 11:43:27;;;;;;;0.97;0.30;;;20.30;27.20;;;;;;6063403;23;20371;-83
2023/04/08 11:45:54;;;;;;;0.38;0.20;;;20.30;26.40;;;;;;6063714;23;20387;-83
2023/04/08 11:48:22;;;;;;;6.53;3.38;;;20.20;26.70;;;;;;6063500;23;20383;-83
2023/04/08 11:51:03;;;;;;;2.30;0.98;;;20.30;26.20;;;;;;6063030;23;20434;-80
2023/04/08 11:53:30;;;;;;;1.02;0.40;;;20.30;26.20;;;;;;6062465;23;20667;-81
2023/04/08 11:56:14;;;;;;;2.43;1.23;;;20.40;26.20;;;;;;6064189;23;20452;-81
2023/04/08 11:58:42;;;;;;;3.17;1.45;;;20.40;26.70;;;;;;6064003;23;20371;-83
2023/04/08 12:01:09;;;;;;;0.45;0.30;;;20.60;28.00;;;;;;6066614;23;20387;-81
2023/04/08 12:03:36;;;;;;;1.60;0.30;;;20.80;27.50;;;;;;6063995;23;20426;-82
2023/04/08 12:06:04;;;;;;;0.70;0.40;;;21.10;27.80;;;;;;6065461;23;20394;-82
2023/04/08 12:08:31;;;;;;;0.70;0.57;;;21.20;27.30;;;;;;6064542;23;20387;-82
2023/04/08 12:10:58;;;;;;;7.65;4.57;;;21.10;27.80;;;;;;6065881;23;20381;-83
2023/04/08 12:13:42;;;;;;;2.90;1.40;;;21.10;27.70;;;;;;6064398;23;20374;-81
2023/04/08 12:16:09;;;;;;;1.00;0.50;;;21.20;28.30;;;;;;6065307;23;20379;-81
2023/04/08 12:18:37;;;;;;;0.93;0.60;;;21.40;28.10;;;;;;6064549;23;20470;-83
2023/04/08 12:21:04;;;;;;;0.40;0.30;;;21.40;27.60;;;;;;6065768;23;20443;-83
2023/04/08 12:23:31;;;;;;;0.50;0.30;;;21.40;27.70;;;;;;6064483;23;20461;-81
2023/04/08 12:25:58;;;;;;;1.10;0.40;;;21.50;27.50;;;;;;6065282;23;20449;-82
2023/04/08 12:28:25;;;;;;;3.08;1.83;;;21.60;28.10;;;;;;6064075;23;20458;-81
2023/04/08 12:30:52;;;;;;;3.03;1.98;;;21.80;28.50;;;;;;6065533;23;20401;-82
2023/04/08 12:33:19;;;;;;;0.80;0.65;;;21.80;27.00;;;;;;6064619;23;20762;-82
2023/04/08 12:35:46;;;;;;;0.73;0.57;;;21.70;27.30;;;;;;6064411;23;20768;-82
2023/04/08 12:38:13;;;;;;;1.10;0.70;;;21.60;27.90;;;;;;6065220;23;20391;-82
2023/04/08 12:40:40;;;;;;;0.67;0.47;;;21.40;27.20;;;;;;6064005;23;20387;-82
2023/04/08 12:43:06;;;;;;;0.50;0.20;;;21.10;27.40;;;;;;6065575;23;20383;-81
2023/04/08 12:45:33;;;;;;;0.30;0.20;;;21.10;28.10;;;;;;6064020;23;20410;-83
2023/04/08 12:48:01;;;;;;;1.08;0.30;;;21.30;27.50;;;;;;6065470;23;20763;-82
2023/04/08 12:50:28;;;;;;;0.60;0.30;;;21.50;28.30;;;;;;6063959;23;20379;-82
2023/04/08 12:52:54;;;;;;;0.52;0.32;;;21.60;27.40;;;;;;6065147;23;20453;-83
2023/04/08 12:55:23;;;;;;;0.47;0.27;;;21.80;27.10;;;;;;6064537;23;20754;-82
2023/04/08 12:57:51;;;;;;;0.45;0.30;;;21.90;27.10;;;;;;6064522;23;20466;-82
2023/04/08 13:00:18;;;;;;;0.32;0.30;;;22.00;27.00;;;;;;6064261;23;20417;-83
2023/04/08 13:02:45;;;;;;;0.50;0.32;;;22.00;26.50;;;;;;6064332;23;20399;-82
2023/04/08 13:05:12;;;;;;;0.90;0.30;;;22.10;26.80;;;;;;6064945;23;20454;-81
2023/04/08 13:07:40;;;;;;;0.40;0.40;;;22.00;26.20;;;;;;6064064;23;20371;-81
2023/04/08 13:10:07;;;;;;;0.90;0.40;;;22.00;26.30;;;;;;6064744;23;20391;-80
2023/04/08 13:12:35;;;;;;;1.10;0.38;;;21.80;26.80;;;;;;6064075;23;20769;-82
2023/04/08 13:15:02;;;;;;;0.57;0.40;;;21.90;27.40;;;;;;6064984;23;20415;-81
2023/04/08 13:17:29;;;;;;;0.98;0.60;;;21.80;25.80;;;;;;6064193;23;20391;-80
2023/04/08 13:19:56;;;;;;;0.30;0.30;;;21.70;26.30;;;;;;6064925;23;20426;-81
2023/04/08 13:22:23;;;;;;;1.55;0.50;;;21.60;26.90;;;;;;6057823;23;20379;-81
2023/04/08 13:24:50;;;;;;;0.97;0.33;;;21.70;26.80;;;;;;6064971;23;20371;-80
2023/04/08 13:27:17;;;;;;;1.07;0.50;;;21.70;26.70;;;;;;6064108;23;20751;-80
2023/04/08 13:29:43;;;;;;;1.00;0.40;;;21.80;27.30;;;;;;6064389;23;20375;-81
2023/04/08 13:32:10;;;;;;;0.80;0.40;;;22.10;27.50;;;;;;6063744;23;20408;-81
2023/04/08 13:34:37;;;;;;;0.85;0.52;;;22.30;26.80;;;;;;6064253;23;20375;-81
2023/04/08 13:37:04;;;;;;;0.60;0.40;;;22.50;26.30;;;;;;6064675;23;20387;-81
2023/04/08 13:39:31;;;;;;;1.50;0.60;;;22.60;26.00;;;;;;6065547;23;20415;-81
2023/04/08 13:41:57;;;;;;;0.77;0.50;;;22.70;26.30;;;;;;6064732;23;20446;-81
2023/04/08 13:44:24;;;;;;;1.20;0.47;;;22.80;26.50;;;;;;6064738;23;20382;-81
2023/04/08 13:46:51;;;;;;;0.63;0.30;;;23.00;25.80;;;;;;6063748;23;20431;-81
2023/04/08 13:49:19;;;;;;;0.90;0.30;;;22.90;24.70;;;;;;6064496;23;20379;-82
2023/04/08 13:51:46;;;;;;;0.60;0.47;;;22.70;25.00;;;;;;6063684;23;20383;-82
2023/04/08 13:54:13;;;;;;;1.50;0.50;;;22.60;25.30;;;;;;6063615;23;20770;-83
2023/04/08 13:56:40;;;;;;;0.50;0.40;;;22.40;25.20;;;;;;6063606;23;20383;-82
2023/04/08 13:59:06;;;;;;;0.82;0.40;;;22.30;25.40;;;;;;6064320;23;20452;-82
2023/04/08 14:01:33;;;;;;;1.30;0.45;;;22.00;25.20;;;;;;6063189;23;20379;-82
2023/04/08 14:04:00;;;;;;;0.93;0.50;;;21.80;25.10;;;;;;6065877;23;20468;-81
2023/04/08 14:06:27;;;;;;;1.20;0.57;;;21.70;25.50;;;;;;6064363;23;20383;-81
2023/04/08 14:08:54;;;;;;;0.70;0.47;;;21.70;25.70;;;;;;6063374;23;20395;-82
2023/04/08 14:11:21;;;;;;;0.60;0.43;;;21.70;25.80;;;;;;6064648;23;20379;-82
2023/04/08 14:13:48;;;;;;;0.40;0.30;;;21.80;25.70;;;;;;6063755;23;20380;-83
2023/04/08 14:16:15;;;;;;;0.40;0.30;;;21.80;25.70;;;;;;6064847;23;20439;-81
2023/04/08 14:18:42;;;;;;;1.45;0.50;;;21.90;25.90;;;;;;6064844;23;20446;-83
2023/04/08 14:21:09;;;;;;;1.50;0.60;;;21.90;25.40;;;;;;6064435;23;20702;-81